createdAt,value
2023-05-08T00:00:19.902Z,403.00
2023-05-08T00:01:19.895Z,403.00
2023-05-08T00:02:19.993Z,402.00
2023-05-08T00:03:20.049Z,399.00
2023-05-08T00:04:20.076Z,401.00
2023-05-08T00:05:20.088Z,401.00
2023-05-08T00:06:20.136Z,405.00
2023-05-08T00:07:20.192Z,407.00
2023-05-08T00:08:20.218Z,407.00
2023-05-08T00:09:20.281Z,407.00
2023-05-08T00:10:20.276Z,405.00
2023-05-08T00:11:20.313Z,404.00
2023-05-08T00:12:20.352Z,402.00
2023-05-08T00:13:20.538Z,402.00
2023-05-08T00:14:20.373Z,403.00
2023-05-08T00:15:20.433Z,402.00
2023-05-08T00:16:20.456Z,402.00
2023-05-08T00:17:20.502Z,402.00
2023-05-08T00:18:20.562Z,402.00
2023-05-08T00:19:20.610Z,401.00
2023-05-08T00:20:20.682Z,401.00
2023-05-08T00:21:20.723Z,402.00
2023-05-08T00:22:20.800Z,403.00
2023-05-08T00:23:20.839Z,406.00
2023-05-08T00:24:20.873Z,405.00
2023-05-08T00:25:20.921Z,405.00
2023-05-08T00:26:20.995Z,408.00
2023-05-08T00:27:21.027Z,409.00
2023-05-08T00:28:21.082Z,408.00
2023-05-08T00:29:21.175Z,404.00
2023-05-08T00:30:21.209Z,403.00
2023-05-08T00:31:21.267Z,402.00
2023-05-08T00:32:21.390Z,403.00
2023-05-08T00:33:21.342Z,404.00
2023-05-08T00:34:21.373Z,406.00
2023-05-08T00:35:21.431Z,406.00
2023-05-08T00:36:21.502Z,406.00
2023-05-08T00:37:21.528Z,408.00
2023-05-08T00:38:21.596Z,408.00
2023-05-08T00:39:21.638Z,406.00
2023-05-08T00:40:21.711Z,404.00
2023-05-08T00:41:21.761Z,403.00
2023-05-08T00:42:21.795Z,403.00
2023-05-08T00:43:21.848Z,403.00
2023-05-08T00:44:21.926Z,404.00
2023-05-08T00:45:22.191Z,403.00
2023-05-08T00:46:22.009Z,408.00
2023-05-08T00:47:22.036Z,409.00
2023-05-08T00:48:22.882Z,407.00
2023-05-08T00:49:22.113Z,409.00
2023-05-08T00:50:22.136Z,411.00
2023-05-08T00:51:22.210Z,409.00
2023-05-08T00:52:22.238Z,408.00
2023-05-08T00:53:22.310Z,405.00
2023-05-08T00:54:22.382Z,404.00
2023-05-08T00:55:22.461Z,403.00
2023-05-08T00:56:22.501Z,407.00
2023-05-08T00:57:22.562Z,407.00
2023-05-08T00:58:22.659Z,406.00
2023-05-08T00:59:22.693Z,405.00
2023-05-08T01:00:22.724Z,403.00
2023-05-08T01:01:22.858Z,402.00
2023-05-08T01:02:22.924Z,403.00
2023-05-08T01:03:22.956Z,405.00
2023-05-08T01:04:22.890Z,405.00
2023-05-08T01:05:22.930Z,401.00
2023-05-08T01:06:22.965Z,400.00
2023-05-08T01:07:23.002Z,398.00
2023-05-08T01:08:23.033Z,397.00
2023-05-08T01:09:23.063Z,396.00
2023-05-08T01:10:23.098Z,398.00
2023-05-08T01:11:23.154Z,394.00
2023-05-08T01:12:23.192Z,397.00
2023-05-08T01:13:23.265Z,398.00
2023-05-08T01:14:23.296Z,398.00
2023-05-08T01:15:23.355Z,395.00
2023-05-08T01:16:23.448Z,394.00
2023-05-08T01:17:23.489Z,396.00
2023-05-08T01:18:23.475Z,398.00
2023-05-08T01:19:23.492Z,398.00
2023-05-08T01:20:23.551Z,396.00
2023-05-08T01:21:23.583Z,395.00
2023-05-08T01:22:23.606Z,398.00
2023-05-08T01:23:23.644Z,401.00
2023-05-08T01:24:23.718Z,405.00
2023-05-08T01:25:23.743Z,404.00
2023-05-08T01:26:23.798Z,407.00
2023-05-08T01:27:23.842Z,406.00
2023-05-08T01:28:23.887Z,404.00
2023-05-08T01:29:23.936Z,403.00
2023-05-08T01:30:23.988Z,400.00
2023-05-08T01:31:24.048Z,400.00
2023-05-08T01:32:24.102Z,401.00
2023-05-08T01:33:24.315Z,401.00
2023-05-08T01:34:24.187Z,403.00
2023-05-08T01:35:24.239Z,399.00
2023-05-08T01:36:24.293Z,399.00
2023-05-08T01:37:24.339Z,398.00
2023-05-08T01:38:24.403Z,398.00
2023-05-08T01:39:24.451Z,401.00
2023-05-08T01:40:24.493Z,400.00
2023-05-08T01:41:24.548Z,401.00
2023-05-08T01:42:24.598Z,402.00
2023-05-08T01:43:24.642Z,402.00
2023-05-08T01:44:24.706Z,403.00
2023-05-08T01:45:24.749Z,401.00
2023-05-08T01:46:24.796Z,401.00
2023-05-08T01:47:24.805Z,404.00
2023-05-08T01:48:24.806Z,402.00
2023-05-08T01:49:24.822Z,401.00
2023-05-08T01:50:24.784Z,402.00
2023-05-08T01:51:24.779Z,399.00
2023-05-08T01:52:24.792Z,400.00
2023-05-08T01:53:24.805Z,402.00
2023-05-08T01:54:24.776Z,402.00
2023-05-08T01:55:24.784Z,398.00
2023-05-08T01:56:24.766Z,398.00
2023-05-08T01:57:24.755Z,400.00
2023-05-08T01:58:24.773Z,398.00
2023-05-08T01:59:24.762Z,396.00
2023-05-08T02:00:24.756Z,395.00
2023-05-08T02:01:24.759Z,394.00
2023-05-08T02:02:24.834Z,395.00
2023-05-08T02:03:24.804Z,396.00
2023-05-08T02:04:24.864Z,396.00
2023-05-08T02:05:24.797Z,398.00
2023-05-08T02:06:24.760Z,398.00
2023-05-08T02:07:24.735Z,398.00
2023-05-08T02:08:24.734Z,397.00
2023-05-08T02:09:24.768Z,398.00
2023-05-08T02:10:24.748Z,398.00
2023-05-08T02:11:24.743Z,402.00
2023-05-08T02:12:24.751Z,403.00
2023-05-08T02:13:24.926Z,404.00
2023-05-08T02:14:24.742Z,406.00
2023-05-08T02:15:24.739Z,409.00
2023-05-08T02:16:24.816Z,407.00
2023-05-08T02:17:24.750Z,403.00
2023-05-08T02:18:24.740Z,405.00
2023-05-08T02:19:24.741Z,403.00
2023-05-08T02:20:24.744Z,403.00
2023-05-08T02:21:24.781Z,403.00
2023-05-08T02:22:24.760Z,402.00
2023-05-08T02:23:24.766Z,406.00
2023-05-08T02:24:24.764Z,407.00
2023-05-08T02:25:24.759Z,405.00
2023-05-08T02:26:24.824Z,403.00
2023-05-08T02:27:24.881Z,398.00
2023-05-08T02:28:24.899Z,401.00
2023-05-08T02:29:24.896Z,404.00
2023-05-08T02:30:24.876Z,404.00
2023-05-08T02:31:24.918Z,405.00
2023-05-08T02:32:24.901Z,407.00
2023-05-08T02:33:24.872Z,404.00
2023-05-08T02:34:24.876Z,401.00
2023-05-08T02:35:24.884Z,402.00
2023-05-08T02:36:24.870Z,401.00
2023-05-08T02:37:24.900Z,401.00
2023-05-08T02:38:24.875Z,401.00
2023-05-08T02:39:24.884Z,399.00
2023-05-08T02:40:24.894Z,397.00
2023-05-08T02:41:24.893Z,396.00
2023-05-08T02:42:24.885Z,396.00
2023-05-08T02:43:24.899Z,398.00
2023-05-08T02:44:24.913Z,396.00
2023-05-08T02:45:24.907Z,396.00
2023-05-08T02:46:24.946Z,398.00
2023-05-08T02:47:24.953Z,400.00
2023-05-08T02:48:24.935Z,398.00
2023-05-08T02:49:24.911Z,398.00
2023-05-08T02:50:24.907Z,401.00
2023-05-08T02:51:24.901Z,402.00
2023-05-08T02:52:24.913Z,404.00
2023-05-08T02:53:24.964Z,405.00
2023-05-08T02:54:24.946Z,406.00
2023-05-08T02:55:24.953Z,401.00
2023-05-08T02:56:24.996Z,400.00
2023-05-08T02:57:25.015Z,400.00
2023-05-08T02:58:25.020Z,398.00
2023-05-08T02:59:25.032Z,401.00
2023-05-08T03:00:25.058Z,400.00
2023-05-08T03:01:25.181Z,399.00
2023-05-08T03:02:25.271Z,398.00
2023-05-08T03:03:25.288Z,397.00
2023-05-08T03:04:25.288Z,397.00
2023-05-08T03:05:25.344Z,395.00
2023-05-08T03:06:25.406Z,397.00
2023-05-08T03:07:25.476Z,400.00
2023-05-08T03:08:25.543Z,398.00
2023-05-08T03:09:25.527Z,396.00
2023-05-08T03:10:25.537Z,393.00
2023-05-08T03:11:25.613Z,392.00
2023-05-08T03:12:25.664Z,394.00
2023-05-08T03:13:25.924Z,394.00
2023-05-08T03:14:25.790Z,394.00
2023-05-08T03:15:25.853Z,395.00
2023-05-08T03:16:26.056Z,396.00
2023-05-08T03:17:26.005Z,395.00
2023-05-08T03:18:26.029Z,393.00
2023-05-08T03:19:26.101Z,397.00
2023-05-08T03:20:26.144Z,399.00
2023-05-08T03:21:26.210Z,400.00
2023-05-08T03:22:26.237Z,399.00
2023-05-08T03:23:26.268Z,399.00
2023-05-08T03:24:26.306Z,399.00
2023-05-08T03:25:26.369Z,398.00
2023-05-08T03:26:26.378Z,398.00
2023-05-08T03:27:26.399Z,399.00
2023-05-08T03:28:26.456Z,401.00
2023-05-08T03:29:26.521Z,400.00
2023-05-08T03:30:26.607Z,402.00
2023-05-08T03:31:26.676Z,402.00
2023-05-08T03:32:26.751Z,402.00
2023-05-08T03:33:26.773Z,402.00
2023-05-08T03:34:26.828Z,402.00
2023-05-08T03:35:26.902Z,401.00
2023-05-08T03:36:26.995Z,401.00
2023-05-08T03:37:27.012Z,402.00
2023-05-08T03:38:27.067Z,400.00
2023-05-08T03:39:27.172Z,402.00
2023-05-08T03:40:27.186Z,399.00
2023-05-08T03:41:27.267Z,399.00
2023-05-08T03:42:27.315Z,398.00
2023-05-08T03:43:27.356Z,398.00
2023-05-08T03:44:27.418Z,398.00
2023-05-08T03:45:27.464Z,397.00
2023-05-08T03:46:27.634Z,397.00
2023-05-08T03:47:27.555Z,396.00
2023-05-08T03:48:27.537Z,395.00
2023-05-08T03:49:27.523Z,392.00
2023-05-08T03:50:27.580Z,393.00
2023-05-08T03:51:27.565Z,392.00
2023-05-08T03:52:27.585Z,393.00
2023-05-08T03:53:27.577Z,394.00
2023-05-08T03:54:27.592Z,396.00
2023-05-08T03:55:27.600Z,398.00
2023-05-08T03:56:27.655Z,396.00
2023-05-08T03:57:27.844Z,397.00
2023-05-08T03:58:27.694Z,396.00
2023-05-08T03:59:27.749Z,396.00
2023-05-08T04:00:27.782Z,397.00
2023-05-08T04:01:27.773Z,397.00
2023-05-08T04:02:27.999Z,400.00
2023-05-08T04:03:27.992Z,402.00
2023-05-08T04:04:27.802Z,400.00
2023-05-08T04:05:27.821Z,400.00
2023-05-08T04:06:30.706Z,396.00
2023-05-08T04:07:27.816Z,397.00
2023-05-08T04:08:27.805Z,394.00
2023-05-08T04:09:27.811Z,394.00
2023-05-08T04:10:27.803Z,393.00
2023-05-08T04:11:27.802Z,393.00
2023-05-08T04:12:27.802Z,393.00
2023-05-08T04:13:27.927Z,397.00
2023-05-08T04:14:27.812Z,398.00
2023-05-08T04:15:27.794Z,403.00
2023-05-08T04:16:27.869Z,401.00
2023-05-08T04:17:27.849Z,401.00
2023-05-08T04:18:27.785Z,397.00
2023-05-08T04:19:27.803Z,396.00
2023-05-08T04:20:27.811Z,395.00
2023-05-08T04:21:27.772Z,397.00
2023-05-08T04:22:27.774Z,397.00
2023-05-08T04:23:27.775Z,400.00
2023-05-08T04:24:27.772Z,401.00
2023-05-08T04:25:27.777Z,401.00
2023-05-08T04:26:27.789Z,401.00
2023-05-08T04:27:27.771Z,398.00
2023-05-08T04:28:27.784Z,398.00
2023-05-08T04:29:27.804Z,398.00
2023-05-08T04:30:27.772Z,396.00
2023-05-08T04:31:27.905Z,397.00
2023-05-08T04:32:27.794Z,397.00
2023-05-08T04:33:27.807Z,398.00
2023-05-08T04:34:27.771Z,396.00
2023-05-08T04:35:27.765Z,395.00
2023-05-08T04:36:27.770Z,395.00
2023-05-08T04:37:27.761Z,396.00
2023-05-08T04:38:27.795Z,397.00
2023-05-08T04:39:27.766Z,395.00
2023-05-08T04:40:27.765Z,396.00
2023-05-08T04:41:27.855Z,396.00
2023-05-08T04:42:27.777Z,396.00
2023-05-08T04:43:27.765Z,394.00
2023-05-08T04:44:27.760Z,395.00
2023-05-08T04:45:27.815Z,396.00
2023-05-08T04:46:27.825Z,396.00
2023-05-08T04:47:27.805Z,399.00
2023-05-08T04:48:27.767Z,399.00
2023-05-08T04:49:27.788Z,398.00
2023-05-08T04:50:27.772Z,401.00
2023-05-08T04:51:27.758Z,403.00
2023-05-08T04:52:27.759Z,403.00
2023-05-08T04:53:27.768Z,401.00
2023-05-08T04:54:27.755Z,402.00
2023-05-08T04:55:27.750Z,403.00
2023-05-08T04:56:27.741Z,399.00
2023-05-08T04:57:27.755Z,400.00
2023-05-08T04:58:27.769Z,400.00
2023-05-08T04:59:27.830Z,401.00
2023-05-08T05:00:27.895Z,401.00
2023-05-08T05:01:28.034Z,401.00
2023-05-08T05:02:28.066Z,400.00
2023-05-08T05:03:28.118Z,400.00
2023-05-08T05:04:28.154Z,401.00
2023-05-08T05:05:28.437Z,398.00
2023-05-08T05:06:28.271Z,395.00
2023-05-08T05:07:28.342Z,393.00
2023-05-08T05:08:28.426Z,395.00
2023-05-08T05:09:28.473Z,398.00
2023-05-08T05:10:28.468Z,398.00
2023-05-08T05:11:28.477Z,397.00
2023-05-08T05:12:28.494Z,394.00
2023-05-08T05:13:29.004Z,398.00
2023-05-08T05:14:28.489Z,399.00
2023-05-08T05:15:28.511Z,399.00
2023-05-08T05:16:28.560Z,401.00
2023-05-08T05:17:28.672Z,404.00
2023-05-08T05:18:28.517Z,406.00
2023-05-08T05:19:28.520Z,408.00
2023-05-08T05:20:28.949Z,409.00
2023-05-08T05:21:28.535Z,408.00
2023-05-08T05:22:28.964Z,408.00
2023-05-08T05:23:28.552Z,406.00
2023-05-08T05:24:28.563Z,404.00
2023-05-08T05:25:28.567Z,404.00
2023-05-08T05:26:28.971Z,406.00
2023-05-08T05:27:28.588Z,409.00
2023-05-08T05:28:30.139Z,408.00
2023-05-08T05:29:28.678Z,407.00
2023-05-08T05:30:28.722Z,408.00
2023-05-08T05:31:28.730Z,408.00
2023-05-08T05:32:29.007Z,406.00
2023-05-08T05:33:28.918Z,404.00
2023-05-08T05:34:29.442Z,402.00
2023-05-08T05:35:28.742Z,401.00
2023-05-08T05:36:28.734Z,401.00
2023-05-08T05:37:28.945Z,404.00
2023-05-08T05:38:28.815Z,406.00
2023-05-08T05:39:28.905Z,404.00
2023-05-08T05:40:29.439Z,405.00
2023-05-08T05:41:29.037Z,406.00
2023-05-08T05:42:29.550Z,407.00
2023-05-08T05:43:29.172Z,408.00
2023-05-08T05:44:29.251Z,410.00
2023-05-08T05:46:28.394Z,415.00
2023-05-08T05:47:29.497Z,422.00
2023-05-08T05:48:29.473Z,485.00
2023-05-08T05:49:29.524Z,472.00
2023-05-08T05:50:33.147Z,461.00
2023-05-08T05:51:45.146Z,453.00
2023-05-08T05:52:29.504Z,445.00
2023-05-08T05:53:29.482Z,464.00
2023-05-08T05:54:29.483Z,475.00
2023-05-08T05:55:29.954Z,474.00
2023-05-08T05:56:29.472Z,470.00
2023-05-08T05:57:29.980Z,468.00
2023-05-08T05:58:29.494Z,466.00
2023-05-08T05:59:29.461Z,467.00
2023-05-08T06:00:29.460Z,471.00
2023-05-08T06:02:29.547Z,468.00
2023-05-08T06:03:29.536Z,468.00
2023-05-08T06:04:29.606Z,469.00
2023-05-08T06:05:29.475Z,468.00
2023-05-08T06:06:29.442Z,467.00
2023-05-08T06:07:29.448Z,466.00
2023-05-08T06:09:01.215Z,465.00
2023-05-08T06:09:29.424Z,466.00
2023-05-08T06:10:29.410Z,465.00
2023-05-08T06:11:29.401Z,464.00
2023-05-08T06:12:29.476Z,462.00
2023-05-08T06:13:29.471Z,463.00
2023-05-08T06:14:29.379Z,463.00
2023-05-08T06:15:29.451Z,467.00
2023-05-08T06:16:29.389Z,463.00
2023-05-08T06:17:29.396Z,463.00
2023-05-08T06:18:29.358Z,465.00
2023-05-08T06:19:29.345Z,462.00
2023-05-08T06:20:30.452Z,458.00
2023-05-08T06:21:29.355Z,455.00
2023-05-08T06:22:29.341Z,457.00
2023-05-08T06:23:29.307Z,456.00
2023-05-08T06:24:29.515Z,455.00
2023-05-08T06:25:29.322Z,455.00
2023-05-08T06:26:29.332Z,454.00
2023-05-08T06:27:29.461Z,455.00
2023-05-08T06:28:29.289Z,456.00
2023-05-08T06:29:29.286Z,458.00
2023-05-08T06:30:29.454Z,462.00
2023-05-08T06:31:29.338Z,547.00
2023-05-08T06:32:29.317Z,473.00
2023-05-08T06:33:29.265Z,464.00
2023-05-08T06:34:29.259Z,463.00
2023-05-08T06:35:29.472Z,465.00
2023-05-08T06:36:29.239Z,470.00
2023-05-08T06:37:29.311Z,477.00
2023-05-08T06:38:32.424Z,478.00
2023-05-08T06:39:29.221Z,477.00
2023-05-08T06:40:29.461Z,478.00
2023-05-08T06:41:29.213Z,481.00
2023-05-08T06:42:29.201Z,483.00
2023-05-08T06:43:29.964Z,484.00
2023-05-08T06:44:29.180Z,486.00
2023-05-08T06:45:29.469Z,482.00
2023-05-08T06:46:29.162Z,484.00
2023-05-08T06:47:29.533Z,484.00
2023-05-08T06:48:29.305Z,484.00
2023-05-08T06:49:29.112Z,485.00
2023-05-08T06:50:29.085Z,487.00
2023-05-08T06:51:29.111Z,486.00
2023-05-08T06:52:29.468Z,482.00
2023-05-08T06:53:29.596Z,481.00
2023-05-08T06:54:29.051Z,481.00
2023-05-08T06:55:29.072Z,477.00
2023-05-08T06:56:29.151Z,478.00
2023-05-08T06:57:29.553Z,479.00
2023-05-08T06:58:29.252Z,482.00
2023-05-08T06:59:29.306Z,481.00
2023-05-08T07:00:29.359Z,485.00
2023-05-08T07:01:29.473Z,486.00
2023-05-08T07:02:29.509Z,489.00
2023-05-08T07:03:29.478Z,486.00
2023-05-08T07:04:31.553Z,487.00
2023-05-08T07:05:29.562Z,488.00
2023-05-08T07:06:29.539Z,488.00
2023-05-08T07:07:30.009Z,488.00
2023-05-08T07:08:30.010Z,490.00
2023-05-08T07:09:29.550Z,489.00
2023-05-08T07:10:29.494Z,489.00
2023-05-08T07:11:29.510Z,485.00
2023-05-08T07:12:29.479Z,483.00
2023-05-08T07:13:29.585Z,484.00
2023-05-08T07:14:29.458Z,485.00
2023-05-08T07:15:30.710Z,485.00
2023-05-08T07:16:29.469Z,480.00
2023-05-08T07:17:29.500Z,482.00
2023-05-08T07:18:29.982Z,484.00
2023-05-08T07:19:29.558Z,484.00
2023-05-08T07:20:29.610Z,487.00
2023-05-08T07:21:29.666Z,486.00
2023-05-08T07:22:29.821Z,486.00
2023-05-08T07:23:29.979Z,490.00
2023-05-08T07:24:29.767Z,492.00
2023-05-08T07:25:37.260Z,489.00
2023-05-08T07:26:29.806Z,486.00
2023-05-08T07:27:33.010Z,483.00
2023-05-08T07:28:29.989Z,484.00
2023-05-08T07:29:29.772Z,483.00
2023-05-08T07:30:32.980Z,483.00
2023-05-08T07:31:29.850Z,486.00
2023-05-08T07:32:29.775Z,491.00
2023-05-08T07:33:29.989Z,538.00
2023-05-08T07:34:29.731Z,553.00
2023-05-08T07:35:29.718Z,571.00
2023-05-08T07:36:32.920Z,608.00
2023-05-08T07:37:29.730Z,598.00
2023-05-08T07:38:30.226Z,605.00
2023-05-08T07:39:29.697Z,656.00
2023-05-08T07:40:29.692Z,678.00
2023-05-08T07:41:32.974Z,695.00
2023-05-08T07:42:29.685Z,711.00
2023-05-08T07:43:30.035Z,731.00
2023-05-08T07:44:37.547Z,768.00
2023-05-08T07:45:29.674Z,783.00
2023-05-08T07:46:29.717Z,789.00
2023-05-08T07:47:29.676Z,793.00
2023-05-08T07:48:30.010Z,798.00
2023-05-08T07:49:30.002Z,806.00
2023-05-08T07:50:29.575Z,822.00
2023-05-08T07:51:29.554Z,838.00
2023-05-08T07:52:29.537Z,842.00
2023-05-08T07:53:29.999Z,848.00
2023-05-08T07:54:29.509Z,861.00
2023-05-08T07:56:36.925Z,873.00
2023-05-08T07:58:29.442Z,882.00
2023-05-08T07:59:29.456Z,879.00
2023-05-08T08:00:36.815Z,880.00
2023-05-08T08:01:29.498Z,885.00
2023-05-08T08:02:29.525Z,891.00
2023-05-08T08:03:30.419Z,893.00
2023-05-08T08:04:29.507Z,894.00
2023-05-08T08:05:29.992Z,890.00
2023-05-08T08:06:29.327Z,890.00
2023-05-08T08:07:29.318Z,891.00
2023-05-08T08:08:29.523Z,893.00
2023-05-08T08:09:32.494Z,896.00
2023-05-08T08:10:30.315Z,891.00
2023-05-08T08:11:29.257Z,886.00
2023-05-08T08:12:29.420Z,888.00
2023-05-08T08:13:29.557Z,894.00
2023-05-08T08:14:29.215Z,900.00
2023-05-08T08:15:29.515Z,910.00
2023-05-08T08:16:29.205Z,906.00
2023-05-08T08:17:29.351Z,907.00
2023-05-08T08:18:29.148Z,900.00
2023-05-08T08:19:29.507Z,902.00
2023-05-08T08:20:29.142Z,908.00
2023-05-08T08:21:29.110Z,911.00
2023-05-08T08:22:29.089Z,914.00
2023-05-08T08:23:29.058Z,901.00
2023-05-08T08:24:29.035Z,901.00
2023-05-08T08:25:29.499Z,912.00
2023-05-08T08:26:29.015Z,920.00
2023-05-08T08:27:29.002Z,926.00
2023-05-08T08:28:29.132Z,923.00
2023-05-08T08:29:29.004Z,919.00
2023-05-08T08:30:28.985Z,920.00
2023-05-08T08:31:29.111Z,912.00
2023-05-08T08:32:29.011Z,900.00
2023-05-08T08:33:28.961Z,897.00
2023-05-08T08:34:28.946Z,898.00
2023-05-08T08:35:28.933Z,899.00
2023-05-08T08:36:29.069Z,899.00
2023-05-08T08:37:28.916Z,898.00
2023-05-08T08:38:28.907Z,895.00
2023-05-08T08:39:28.907Z,897.00
2023-05-08T08:40:30.010Z,902.00
2023-05-08T08:41:28.885Z,900.00
2023-05-08T08:43:36.403Z,905.00
2023-05-08T08:44:28.834Z,916.00
2023-05-08T08:46:28.808Z,920.00
2023-05-08T08:47:28.807Z,914.00
2023-05-08T08:48:28.751Z,915.00
2023-05-08T08:49:29.055Z,945.00
2023-05-08T08:50:28.713Z,947.00
2023-05-08T08:51:28.902Z,947.00
2023-05-08T08:52:28.670Z,945.00
2023-05-08T08:53:28.660Z,943.00
2023-05-08T08:54:29.018Z,944.00
2023-05-08T08:55:29.012Z,938.00
2023-05-08T08:56:28.604Z,932.00
2023-05-08T08:57:28.582Z,928.00
2023-05-08T08:58:29.011Z,927.00
2023-05-08T08:59:28.691Z,923.00
2023-05-08T09:00:44.133Z,918.00
2023-05-08T09:01:28.551Z,897.00
2023-05-08T09:02:28.548Z,896.00
2023-05-08T09:03:28.568Z,883.00
2023-05-08T09:04:28.529Z,881.00
2023-05-08T09:05:28.448Z,873.00
2023-05-08T09:06:28.427Z,868.00
2023-05-08T09:07:28.417Z,862.00
2023-05-08T09:08:28.448Z,867.00
2023-05-08T09:09:28.401Z,874.00
2023-05-08T09:10:28.537Z,881.00
2023-05-08T09:11:28.379Z,886.00
2023-05-08T09:12:28.337Z,888.00
2023-05-08T09:13:28.417Z,894.00
2023-05-08T09:14:28.300Z,893.00
2023-05-08T09:15:28.667Z,890.00
2023-05-08T09:16:28.653Z,892.00
2023-05-08T09:17:28.265Z,909.00
2023-05-08T09:18:28.300Z,926.00
2023-05-08T09:19:29.078Z,929.00
2023-05-08T09:20:28.183Z,925.00
2023-05-08T09:21:28.526Z,916.00
2023-05-08T09:22:28.363Z,915.00
2023-05-08T09:23:28.147Z,910.00
2023-05-08T09:24:29.096Z,892.00
2023-05-08T09:25:28.536Z,890.00
2023-05-08T09:26:28.085Z,891.00
2023-05-08T09:27:28.356Z,885.00
2023-05-08T09:28:28.543Z,880.00
2023-05-08T09:29:28.033Z,871.00
2023-05-08T09:30:28.019Z,871.00
2023-05-08T09:31:28.991Z,867.00
2023-05-08T09:32:28.026Z,873.00
2023-05-08T09:33:28.046Z,906.00
2023-05-08T09:34:27.974Z,913.00
2023-05-08T09:35:27.933Z,911.00
2023-05-08T09:36:28.039Z,910.00
2023-05-08T09:37:27.919Z,909.00
2023-05-08T09:38:27.885Z,909.00
2023-05-08T09:39:27.876Z,910.00
2023-05-08T09:40:27.854Z,906.00
2023-05-08T09:41:28.029Z,910.00
2023-05-08T09:42:27.817Z,919.00
2023-05-08T09:43:28.218Z,920.00
2023-05-08T09:44:27.776Z,925.00
2023-05-08T09:45:31.482Z,917.00
2023-05-08T09:46:27.840Z,920.00
2023-05-08T09:47:28.820Z,925.00
2023-05-08T09:48:28.038Z,916.00
2023-05-08T09:49:27.652Z,917.00
2023-05-08T09:50:27.797Z,916.00
2023-05-08T09:51:28.031Z,918.00
2023-05-08T09:52:27.610Z,920.00
2023-05-08T09:53:28.040Z,921.00
2023-05-08T09:54:27.566Z,928.00
2023-05-08T09:55:27.553Z,932.00
2023-05-08T09:56:28.041Z,935.00
2023-05-08T09:57:27.610Z,936.00
2023-05-08T09:58:27.679Z,939.00
2023-05-08T09:59:27.685Z,939.00
2023-05-08T10:00:27.916Z,938.00
2023-05-08T10:01:28.091Z,937.00
2023-05-08T10:02:27.808Z,938.00
2023-05-08T10:03:27.967Z,928.00
2023-05-08T10:04:27.819Z,927.00
2023-05-08T10:05:28.009Z,929.00
2023-05-08T10:06:28.044Z,926.00
2023-05-08T10:07:27.906Z,925.00
2023-05-08T10:08:27.929Z,929.00
2023-05-08T10:09:35.598Z,930.00
2023-05-08T10:10:27.931Z,926.00
2023-05-08T10:11:27.963Z,924.00
2023-05-08T10:12:27.915Z,923.00
2023-05-08T10:13:28.188Z,916.00
2023-05-08T10:14:27.867Z,903.00
2023-05-08T10:15:27.844Z,900.00
2023-05-08T10:16:27.991Z,897.00
2023-05-08T10:17:28.073Z,902.00
2023-05-08T10:18:28.050Z,906.00
2023-05-08T10:19:28.035Z,907.00
2023-05-08T10:20:27.737Z,908.00
2023-05-08T10:21:28.046Z,908.00
2023-05-08T10:22:27.709Z,905.00
2023-05-08T10:23:35.088Z,905.00
2023-05-08T10:24:27.719Z,887.00
2023-05-08T10:25:27.667Z,883.00
2023-05-08T10:26:28.062Z,893.00
2023-05-08T10:27:27.688Z,886.00
2023-05-08T10:28:27.617Z,860.00
2023-05-08T10:29:27.606Z,856.00
2023-05-08T10:30:27.604Z,872.00
2023-05-08T10:31:29.090Z,879.00
2023-05-08T10:32:28.076Z,887.00
2023-05-08T10:33:28.953Z,889.00
2023-05-08T10:34:27.586Z,894.00
2023-05-08T10:35:27.681Z,892.00
2023-05-08T10:36:28.480Z,886.00
2023-05-08T10:37:27.527Z,876.00
2023-05-08T10:38:27.573Z,860.00
2023-05-08T10:39:27.473Z,822.00
2023-05-08T10:40:27.488Z,820.00
2023-05-08T10:41:27.447Z,809.00
2023-05-08T10:42:27.422Z,796.00
2023-05-08T10:43:27.403Z,780.00
2023-05-08T10:44:27.400Z,768.00
2023-05-08T10:45:27.372Z,774.00
2023-05-08T10:46:27.674Z,781.00
2023-05-08T10:47:27.387Z,782.00
2023-05-08T10:48:27.325Z,776.00
2023-05-08T10:49:27.329Z,782.00
2023-05-08T10:50:27.294Z,783.00
2023-05-08T10:51:28.124Z,786.00
2023-05-08T10:52:27.566Z,785.00
2023-05-08T10:53:27.227Z,803.00
2023-05-08T10:54:28.627Z,818.00
2023-05-08T10:55:27.194Z,811.00
2023-05-08T10:56:27.213Z,798.00
2023-05-08T10:57:27.566Z,799.00
2023-05-08T10:58:27.137Z,792.00
2023-05-08T10:59:27.574Z,783.00
2023-05-08T11:00:27.571Z,779.00
2023-05-08T11:01:27.593Z,771.00
2023-05-08T11:02:27.121Z,775.00
2023-05-08T11:03:32.306Z,748.00
2023-05-08T11:04:27.162Z,760.00
2023-05-08T11:05:27.021Z,764.00
2023-05-08T11:06:27.149Z,754.00
2023-05-08T11:07:26.995Z,743.00
2023-05-08T11:08:26.945Z,741.00
2023-05-08T11:09:26.920Z,743.00
2023-05-08T11:10:27.064Z,744.00
2023-05-08T11:11:26.904Z,735.00
2023-05-08T11:12:26.901Z,736.00
2023-05-08T11:13:26.892Z,733.00
2023-05-08T11:14:26.817Z,733.00
2023-05-08T11:15:27.069Z,733.00
2023-05-08T11:16:27.086Z,744.00
2023-05-08T11:17:26.837Z,751.00
2023-05-08T11:18:32.510Z,731.00
2023-05-08T11:19:26.731Z,701.00
2023-05-08T11:20:26.710Z,699.00
2023-05-08T11:21:27.081Z,705.00
2023-05-08T11:22:27.670Z,697.00
2023-05-08T11:23:27.102Z,677.00
2023-05-08T11:24:26.796Z,687.00
2023-05-08T11:25:26.611Z,683.00
2023-05-08T11:26:26.601Z,639.00
2023-05-08T11:27:26.564Z,639.00
2023-05-08T11:28:26.572Z,638.00
2023-05-08T11:29:26.570Z,636.00
2023-05-08T11:30:26.574Z,632.00
2023-05-08T11:31:26.547Z,629.00
2023-05-08T11:32:26.583Z,643.00
2023-05-08T11:33:27.075Z,646.00
2023-05-08T11:34:27.656Z,644.00
2023-05-08T11:36:26.729Z,639.00
2023-05-08T11:37:27.082Z,635.00
2023-05-08T11:38:26.675Z,630.00
2023-05-08T11:39:26.647Z,623.00
2023-05-08T11:40:26.605Z,613.00
2023-05-08T11:41:26.586Z,611.00
2023-05-08T11:42:27.165Z,607.00
2023-05-08T11:43:26.569Z,616.00
2023-05-08T11:44:26.570Z,614.00
2023-05-08T11:45:26.541Z,610.00
2023-05-08T11:46:26.645Z,607.00
2023-05-08T11:47:26.502Z,607.00
2023-05-08T11:48:27.037Z,602.00
2023-05-08T11:49:29.517Z,591.00
2023-05-08T11:50:26.467Z,580.00
2023-05-08T11:51:26.476Z,574.00
2023-05-08T11:52:26.474Z,570.00
2023-05-08T11:53:26.431Z,571.00
2023-05-08T11:54:27.583Z,582.00
2023-05-08T11:55:26.425Z,588.00
2023-05-08T11:56:26.394Z,587.00
2023-05-08T11:57:26.372Z,589.00
2023-05-08T11:58:26.403Z,592.00
2023-05-08T11:59:26.580Z,609.00
2023-05-08T12:00:26.367Z,621.00
2023-05-08T12:01:27.320Z,626.00
2023-05-08T12:02:26.398Z,634.00
2023-05-08T12:03:26.490Z,628.00
2023-05-08T12:04:26.631Z,625.00
2023-05-08T12:05:26.252Z,625.00
2023-05-08T12:06:26.244Z,625.00
2023-05-08T12:07:26.601Z,628.00
2023-05-08T12:08:26.371Z,633.00
2023-05-08T12:09:26.432Z,640.00
2023-05-08T12:10:26.453Z,642.00
2023-05-08T12:11:27.552Z,641.00
2023-05-08T12:12:26.586Z,645.00
2023-05-08T12:13:26.658Z,647.00
2023-05-08T12:14:26.611Z,685.00
2023-05-08T12:15:26.697Z,736.00
2023-05-08T12:16:26.721Z,784.00
2023-05-08T12:17:27.345Z,803.00
2023-05-08T12:18:27.052Z,814.00
2023-05-08T12:19:27.148Z,819.00
2023-05-08T12:20:27.261Z,828.00
2023-05-08T12:21:27.075Z,844.00
2023-05-08T12:22:28.203Z,873.00
2023-05-08T12:23:27.002Z,878.00
2023-05-08T12:24:27.132Z,887.00
2023-05-08T12:25:27.401Z,894.00
2023-05-08T12:26:27.273Z,899.00
2023-05-08T12:27:27.360Z,900.00
2023-05-08T12:28:27.190Z,902.00
2023-05-08T12:29:27.230Z,902.00
2023-05-08T12:30:27.078Z,908.00
2023-05-08T12:31:27.159Z,915.00
2023-05-08T12:32:29.107Z,915.00
2023-05-08T12:33:27.141Z,915.00
2023-05-08T12:34:26.939Z,913.00
2023-05-08T12:35:27.031Z,912.00